createdAt,value
2023-02-09T00:00:25.871Z,28.00
2023-02-09T00:02:52.463Z,29.53
2023-02-09T00:05:19.268Z,29.03
2023-02-09T00:07:45.884Z,28.77
2023-02-09T00:10:12.536Z,30.00
2023-02-09T00:12:57.629Z,29.37
2023-02-09T00:15:24.210Z,29.00
2023-02-09T00:17:50.788Z,29.27
2023-02-09T00:20:17.617Z,29.23
2023-02-09T00:22:44.186Z,29.73
2023-02-09T00:25:10.822Z,29.37
2023-02-09T00:27:37.422Z,30.60
2023-02-09T00:30:04.743Z,28.93
2023-02-09T00:32:32.982Z,30.17
2023-02-09T00:34:59.646Z,27.77
2023-02-09T00:37:27.991Z,29.90
2023-02-09T00:39:54.586Z,30.40
2023-02-09T00:42:21.197Z,31.67
2023-02-09T00:44:47.860Z,31.00
2023-02-09T00:47:14.778Z,28.97
2023-02-09T00:49:41.467Z,29.00
2023-02-09T00:52:09.896Z,28.87
2023-02-09T00:54:37.037Z,30.10
2023-02-09T00:57:05.414Z,30.50
2023-02-09T00:59:35.145Z,31.47
2023-02-09T01:02:02.860Z,28.20
2023-02-09T01:04:29.549Z,30.57
2023-02-09T01:06:56.285Z,28.97
2023-02-09T01:09:22.952Z,29.03
2023-02-09T01:11:49.605Z,29.00
2023-02-09T01:14:16.895Z,29.60
2023-02-09T01:16:43.645Z,29.23
2023-02-09T01:19:13.136Z,30.67
2023-02-09T01:21:39.878Z,30.43
2023-02-09T01:24:06.821Z,29.63
2023-02-09T01:26:33.695Z,29.43
2023-02-09T01:29:00.362Z,31.43
2023-02-09T01:31:33.960Z,30.10
2023-02-09T01:34:02.838Z,29.30
2023-02-09T01:36:31.164Z,28.87
2023-02-09T01:39:00.299Z,28.57
2023-02-09T01:41:27.506Z,30.73
2023-02-09T01:44:06.391Z,29.27
2023-02-09T01:46:34.980Z,29.80
2023-02-09T01:49:15.084Z,31.07
2023-02-09T01:51:54.418Z,30.67
2023-02-09T01:54:49.976Z,29.30
2023-02-09T01:57:23.442Z,29.20
2023-02-09T01:59:56.348Z,30.23
2023-02-09T02:02:23.440Z,29.73
2023-02-09T02:04:51.126Z,30.20
2023-02-09T02:07:28.020Z,28.83
2023-02-09T02:09:54.754Z,30.90
2023-02-09T02:12:22.154Z,29.67
2023-02-09T02:14:48.765Z,29.63
2023-02-09T02:17:42.075Z,29.57
2023-02-09T02:20:20.942Z,28.80
2023-02-09T02:22:57.041Z,29.53
2023-02-09T02:26:07.154Z,28.50
2023-02-09T02:29:18.350Z,30.00
2023-02-09T02:32:11.088Z,28.30
2023-02-09T02:34:48.746Z,28.73
2023-02-09T02:37:39.857Z,30.03
2023-02-09T02:40:28.394Z,28.63
2023-02-09T02:43:08.892Z,28.93
2023-02-09T02:46:00.443Z,27.33
2023-02-09T02:48:43.836Z,29.33
2023-02-09T02:51:23.778Z,27.53
2023-02-09T02:53:56.587Z,29.10
2023-02-09T02:56:39.978Z,30.03
2023-02-09T02:59:11.671Z,28.83
2023-02-09T03:01:43.736Z,30.10
2023-02-09T03:04:12.886Z,27.90
2023-02-09T03:06:39.552Z,29.47
2023-02-09T03:09:07.052Z,27.80
2023-02-09T03:11:41.662Z,28.73
2023-02-09T03:14:47.891Z,28.00
2023-02-09T03:17:41.135Z,27.93
2023-02-09T03:20:16.702Z,28.13
2023-02-09T03:22:51.140Z,27.27
2023-02-09T03:25:40.120Z,26.33
2023-02-09T03:28:12.634Z,28.43
2023-02-09T03:30:42.404Z,28.00
2023-02-09T03:33:24.809Z,27.57
2023-02-09T03:35:55.915Z,27.17
2023-02-09T03:38:23.133Z,26.10
2023-02-09T03:40:49.788Z,27.77
2023-02-09T03:43:16.402Z,27.30
2023-02-09T03:45:43.099Z,27.30
2023-02-09T03:48:09.783Z,27.17
2023-02-09T03:50:37.122Z,27.63
2023-02-09T03:53:07.579Z,25.73
2023-02-09T03:55:34.664Z,27.87
2023-02-09T03:58:01.303Z,26.37
2023-02-09T04:00:28.165Z,27.07
2023-02-09T04:02:54.867Z,26.77
2023-02-09T04:05:22.835Z,26.63
2023-02-09T04:07:49.645Z,27.37
2023-02-09T04:10:16.332Z,26.07
2023-02-09T04:12:42.941Z,25.63
2023-02-09T04:15:10.185Z,26.73
2023-02-09T04:17:36.783Z,26.90
2023-02-09T04:20:03.624Z,27.30
2023-02-09T04:22:30.296Z,26.30
2023-02-09T04:24:56.904Z,26.73
2023-02-09T04:27:23.510Z,26.97
2023-02-09T04:29:50.101Z,24.60
2023-02-09T04:32:16.688Z,25.70
2023-02-09T04:34:43.289Z,25.13
2023-02-09T04:37:10.010Z,25.13
2023-02-09T04:39:36.772Z,24.33
2023-02-09T04:42:03.434Z,25.20
2023-02-09T04:44:30.112Z,24.43
2023-02-09T04:46:56.700Z,25.33
2023-02-09T04:49:23.307Z,24.20
2023-02-09T04:51:49.875Z,23.17
2023-02-09T04:54:16.449Z,23.57
2023-02-09T04:56:43.017Z,22.30
2023-02-09T04:59:28.769Z,22.20
2023-02-09T05:01:55.365Z,23.43
2023-02-09T05:04:21.975Z,22.33
2023-02-09T05:06:48.577Z,23.47
2023-02-09T05:09:15.183Z,24.00
2023-02-09T05:11:41.779Z,25.67
2023-02-09T05:14:08.404Z,22.73
2023-02-09T05:16:35.082Z,22.23
2023-02-09T05:19:01.736Z,22.77
2023-02-09T05:21:28.329Z,21.70
2023-02-09T05:23:54.947Z,21.13
2023-02-09T05:26:21.554Z,22.70
2023-02-09T05:28:48.174Z,21.43
2023-02-09T05:31:14.874Z,21.27
2023-02-09T05:33:41.618Z,23.53
2023-02-09T05:36:09.467Z,23.23
2023-02-09T05:38:36.630Z,21.87
2023-02-09T05:41:36.532Z,20.57
2023-02-09T05:44:04.303Z,21.37
2023-02-09T05:46:31.131Z,20.33
2023-02-09T05:48:57.789Z,20.60
2023-02-09T05:51:24.480Z,20.37
2023-02-09T05:53:53.308Z,21.20
2023-02-09T05:56:20.031Z,20.00
2023-02-09T05:58:46.639Z,18.90
2023-02-09T06:01:13.469Z,18.87
2023-02-09T06:03:40.142Z,18.80
2023-02-09T06:06:07.072Z,19.53
2023-02-09T06:08:33.691Z,18.73
2023-02-09T06:11:02.557Z,18.57
2023-02-09T06:13:29.231Z,18.97
2023-02-09T06:15:55.906Z,18.67
2023-02-09T06:18:22.550Z,18.73
2023-02-09T06:20:49.244Z,18.07
2023-02-09T06:23:15.826Z,18.90
2023-02-09T06:25:42.447Z,18.33
2023-02-09T06:28:09.107Z,18.87
2023-02-09T06:30:35.846Z,18.17
2023-02-09T06:33:02.580Z,17.93
2023-02-09T06:35:29.211Z,18.50
2023-02-09T06:37:59.181Z,18.37
2023-02-09T06:40:25.837Z,17.80
2023-02-09T06:42:52.481Z,16.97
2023-02-09T06:45:19.367Z,18.50
2023-02-09T06:47:46.918Z,17.93
2023-02-09T06:50:17.654Z,18.37
2023-02-09T06:52:45.004Z,17.70
2023-02-09T06:55:11.681Z,17.23
2023-02-09T06:57:38.783Z,18.70
2023-02-09T07:00:08.243Z,17.50
2023-02-09T07:02:35.442Z,17.87
2023-02-09T07:05:02.156Z,17.40
2023-02-09T07:07:28.759Z,17.27
2023-02-09T07:09:55.348Z,16.40
2023-02-09T07:12:22.412Z,16.63
2023-02-09T07:14:49.031Z,16.27
2023-02-09T07:17:15.691Z,16.27
2023-02-09T07:19:42.259Z,16.60
2023-02-09T07:22:08.973Z,17.83
2023-02-09T07:24:35.683Z,16.87
2023-02-09T07:27:04.631Z,16.50
2023-02-09T07:29:31.890Z,15.90
2023-02-09T07:31:59.133Z,16.10
2023-02-09T07:34:26.129Z,15.37
2023-02-09T07:36:52.744Z,15.67
2023-02-09T07:39:19.470Z,14.83
2023-02-09T07:41:46.123Z,16.27
2023-02-09T07:44:12.759Z,15.77
2023-02-09T07:46:39.453Z,16.00
2023-02-09T07:49:06.143Z,15.40
2023-02-09T07:51:34.289Z,15.07
2023-02-09T07:54:01.221Z,15.30
2023-02-09T07:56:28.636Z,15.27
2023-02-09T07:58:55.822Z,14.97
2023-02-09T08:01:23.054Z,14.57
2023-02-09T08:03:50.418Z,14.93
2023-02-09T08:06:42.486Z,15.50
2023-02-09T08:09:11.514Z,15.47
2023-02-09T08:11:49.774Z,15.13
2023-02-09T08:14:21.974Z,14.03
2023-02-09T08:16:51.270Z,15.00
2023-02-09T08:19:22.748Z,14.30
2023-02-09T08:21:50.079Z,15.97
2023-02-09T08:24:20.217Z,14.33
2023-02-09T08:26:46.957Z,14.10
2023-02-09T08:29:13.699Z,15.30
2023-02-09T08:31:40.723Z,14.73
2023-02-09T08:34:07.416Z,15.00
2023-02-09T08:36:37.346Z,13.00
2023-02-09T08:39:05.245Z,13.27
2023-02-09T08:41:31.985Z,12.80
2023-02-09T08:43:58.569Z,13.83
2023-02-09T08:46:25.404Z,14.13
2023-02-09T08:48:52.896Z,15.10
2023-02-09T08:51:19.613Z,14.03
2023-02-09T08:53:52.289Z,14.80
2023-02-09T08:56:21.063Z,13.43
2023-02-09T08:58:48.153Z,12.37
2023-02-09T09:01:16.864Z,11.87
2023-02-09T09:03:43.648Z,11.30
2023-02-09T09:06:11.871Z,14.57
2023-02-09T09:08:39.860Z,11.27
2023-02-09T09:11:12.898Z,10.37
2023-02-09T09:13:40.869Z,9.60
2023-02-09T09:16:13.378Z,9.77
2023-02-09T09:18:40.036Z,9.90
2023-02-09T09:21:06.603Z,10.17
2023-02-09T09:23:33.234Z,8.80
2023-02-09T09:26:04.060Z,11.47
2023-02-09T09:28:31.141Z,10.73
2023-02-09T09:31:01.960Z,9.50
2023-02-09T09:33:28.630Z,9.83
2023-02-09T09:35:55.236Z,10.70
2023-02-09T09:38:21.869Z,10.17
2023-02-09T09:40:48.640Z,10.00
2023-02-09T09:43:52.780Z,10.13
2023-02-09T09:46:23.607Z,9.93
2023-02-09T09:48:54.444Z,9.93
2023-02-09T09:51:34.097Z,11.13
2023-02-09T09:54:03.189Z,9.50
2023-02-09T09:56:31.627Z,9.87
2023-02-09T09:58:59.821Z,9.77
2023-02-09T10:01:30.649Z,10.53
2023-02-09T10:04:01.416Z,10.57
2023-02-09T10:06:32.717Z,9.87
2023-02-09T10:09:22.146Z,9.93
2023-02-09T10:11:54.808Z,9.23
2023-02-09T10:14:23.663Z,10.20
2023-02-09T10:16:50.664Z,9.47
2023-02-09T10:19:20.842Z,9.70
2023-02-09T10:21:48.913Z,9.00
2023-02-09T10:24:21.096Z,9.77
2023-02-09T10:27:24.262Z,9.53
2023-02-09T10:29:51.037Z,9.60
2023-02-09T10:32:27.797Z,9.17
2023-02-09T10:34:57.776Z,10.10
2023-02-09T10:37:29.634Z,9.70
2023-02-09T10:40:43.589Z,10.47
2023-02-09T10:43:33.743Z,9.67
2023-02-09T10:46:08.331Z,9.20
2023-02-09T10:48:41.129Z,10.20
2023-02-09T10:51:29.905Z,10.27
2023-02-09T10:54:01.097Z,10.43
2023-02-09T10:56:44.275Z,9.60
2023-02-09T10:59:25.620Z,9.67
2023-02-09T11:02:02.553Z,9.43
2023-02-09T11:04:40.300Z,9.87
2023-02-09T11:07:17.872Z,9.93
2023-02-09T11:09:50.260Z,10.17
2023-02-09T11:12:20.256Z,9.33
2023-02-09T11:14:47.034Z,9.17
2023-02-09T11:17:16.924Z,9.90
2023-02-09T11:20:26.734Z,9.67
2023-02-09T11:22:53.347Z,10.00
2023-02-09T11:25:50.682Z,8.27
2023-02-09T11:28:47.335Z,9.90
2023-02-09T11:31:51.753Z,9.63
2023-02-09T11:34:51.623Z,9.60
2023-02-09T11:37:42.424Z,9.70
2023-02-09T11:40:21.117Z,10.17
2023-02-09T11:43:11.077Z,9.70
2023-02-09T11:45:49.941Z,9.30
2023-02-09T11:48:22.517Z,9.57
2023-02-09T11:51:19.307Z,9.97
2023-02-09T11:54:04.576Z,10.57
2023-02-09T11:56:37.578Z,9.70
2023-02-09T11:59:07.715Z,9.80
2023-02-09T12:02:16.723Z,9.67
2023-02-09T12:04:58.585Z,9.60
2023-02-09T12:08:08.763Z,10.50
2023-02-09T12:10:48.550Z,9.63
2023-02-09T12:13:55.817Z,8.87
2023-02-09T12:16:28.218Z,9.23
2023-02-09T12:18:55.428Z,10.20
2023-02-09T12:21:32.444Z,9.57
2023-02-09T12:24:00.841Z,10.03
2023-02-09T12:26:44.239Z,9.77
2023-02-09T12:29:38.216Z,8.90
2023-02-09T12:32:04.862Z,9.93
2023-02-09T12:34:49.704Z,10.30
2023-02-09T12:37:29.069Z,10.50
2023-02-09T12:40:03.369Z,9.87
2023-02-09T12:42:53.134Z,9.40
2023-02-09T12:45:43.194Z,9.83
2023-02-09T12:48:09.937Z,9.50
2023-02-09T12:50:42.630Z,9.27
2023-02-09T12:53:24.683Z,10.10
2023-02-09T12:56:08.948Z,9.80
2023-02-09T12:58:37.922Z,11.40
2023-02-09T13:01:05.705Z,9.70
2023-02-09T13:03:40.489Z,9.67
2023-02-09T13:06:28.357Z,10.83
2023-02-09T13:08:59.292Z,9.87
2023-02-09T13:11:44.466Z,7.10
2023-02-09T13:14:13.266Z,10.17
2023-02-09T13:17:14.427Z,10.33
2023-02-09T13:19:52.632Z,10.60
2023-02-09T13:22:46.183Z,10.10
2023-02-09T13:25:37.250Z,10.43
2023-02-09T13:28:22.593Z,10.57
2023-02-09T13:30:49.466Z,10.63
2023-02-09T13:33:32.979Z,11.60
2023-02-09T13:36:27.482Z,10.47
2023-02-09T13:38:54.415Z,8.00
2023-02-09T13:41:36.179Z,10.93
2023-02-09T13:44:03.585Z,10.67
2023-02-09T13:46:35.069Z,11.30
2023-02-09T13:49:13.363Z,10.07
2023-02-09T13:51:40.196Z,11.97
2023-02-09T13:54:07.160Z,11.60
2023-02-09T13:56:36.920Z,11.47
2023-02-09T13:59:03.891Z,10.90
2023-02-09T14:01:34.055Z,12.93
2023-02-09T14:04:05.415Z,12.47
2023-02-09T14:07:05.403Z,10.93
2023-02-09T14:09:41.152Z,11.87
2023-02-09T14:12:16.576Z,11.33
2023-02-09T14:15:08.832Z,11.60
2023-02-09T14:17:35.697Z,12.63
2023-02-09T14:22:44.391Z,11.23
2023-02-09T14:25:15.307Z,12.47
2023-02-09T14:27:46.830Z,12.57
2023-02-09T14:30:26.354Z,12.33
2023-02-09T14:32:58.523Z,12.37
2023-02-09T14:36:14.937Z,12.30
2023-02-09T14:38:42.797Z,10.87
2023-02-09T14:41:29.121Z,12.20
2023-02-09T14:44:00.915Z,11.80
2023-02-09T14:46:28.099Z,12.10
2023-02-09T14:48:58.141Z,12.20
2023-02-09T14:51:27.506Z,11.77
2023-02-09T14:53:54.481Z,11.67
2023-02-09T14:56:30.088Z,12.10
2023-02-09T14:58:56.687Z,12.23
2023-02-09T15:01:23.425Z,11.90
2023-02-09T15:03:50.140Z,12.43
2023-02-09T15:06:16.846Z,12.40
2023-02-09T15:08:43.872Z,10.90
2023-02-09T15:11:42.726Z,11.43
2023-02-09T15:14:11.371Z,11.50
2023-02-09T15:16:38.179Z,11.40
2023-02-09T15:19:11.736Z,10.50
2023-02-09T15:21:38.437Z,10.70
2023-02-09T15:24:05.381Z,11.03
2023-02-09T15:26:36.356Z,11.60
2023-02-09T15:29:09.285Z,11.30
2023-02-09T15:31:36.082Z,12.27
2023-02-09T15:34:04.641Z,12.13
2023-02-09T15:36:31.478Z,12.03
2023-02-09T15:38:58.977Z,11.80
2023-02-09T15:41:44.357Z,11.77
2023-02-09T15:44:36.049Z,12.27
2023-02-09T15:47:21.285Z,12.60
2023-02-09T15:49:47.925Z,11.87
2023-02-09T15:52:16.279Z,12.20
2023-02-09T15:54:43.642Z,12.10
2023-02-09T15:57:12.817Z,11.97
2023-02-09T15:59:39.609Z,11.70
2023-02-09T16:02:14.382Z,12.00
2023-02-09T16:04:41.134Z,11.53
2023-02-09T16:07:12.567Z,12.00
2023-02-09T16:09:41.271Z,12.43
2023-02-09T16:12:11.147Z,11.57
2023-02-09T16:14:38.427Z,12.53
2023-02-09T16:17:05.528Z,12.30
2023-02-09T16:19:32.424Z,12.40
2023-02-09T16:22:03.045Z,13.93
2023-02-09T16:24:34.904Z,12.63
2023-02-09T16:27:04.432Z,12.23
2023-02-09T16:29:31.215Z,15.73
2023-02-09T16:31:58.457Z,13.07
2023-02-09T16:34:26.808Z,12.37
2023-02-09T16:36:53.513Z,17.40
2023-02-09T16:39:22.191Z,14.83
2023-02-09T16:41:52.641Z,11.73
2023-02-09T16:44:25.727Z,14.83
2023-02-09T16:46:55.260Z,12.63
2023-02-09T16:49:31.693Z,13.03
2023-02-09T16:52:02.473Z,12.90
2023-02-09T16:54:32.979Z,13.37
2023-02-09T16:57:00.839Z,15.90
2023-02-09T16:59:27.617Z,13.73
2023-02-09T17:01:54.494Z,13.10
2023-02-09T17:04:21.167Z,12.50
2023-02-09T17:06:50.777Z,12.70
2023-02-09T17:09:17.521Z,12.80
2023-02-09T17:11:47.335Z,12.03
2023-02-09T17:14:14.554Z,12.47
2023-02-09T17:16:46.047Z,13.03
2023-02-09T17:19:15.722Z,13.10
2023-02-09T17:21:42.582Z,12.73
2023-02-09T17:24:14.651Z,13.07
2023-02-09T17:26:41.883Z,12.63
2023-02-09T17:29:08.997Z,13.23
2023-02-09T17:31:52.389Z,12.33
2023-02-09T17:34:26.781Z,13.07
2023-02-09T17:36:53.545Z,12.20
2023-02-09T17:39:24.182Z,12.97
2023-02-09T17:41:52.733Z,12.80
2023-02-09T17:44:35.370Z,12.90
2023-02-09T17:47:17.548Z,13.43
2023-02-09T17:49:47.427Z,12.87
2023-02-09T17:52:19.078Z,14.30
2023-02-09T17:54:46.800Z,13.53
2023-02-09T17:57:17.721Z,8.43
2023-02-09T17:59:45.894Z,13.57
2023-02-09T18:02:17.932Z,13.77
2023-02-09T18:04:44.613Z,13.80
2023-02-09T18:07:12.692Z,13.90
2023-02-09T18:09:39.403Z,13.63
2023-02-09T18:12:27.235Z,14.60
2023-02-09T18:14:54.053Z,14.87
2023-02-09T18:17:20.927Z,14.13
2023-02-09T18:19:47.519Z,15.10
2023-02-09T18:22:17.114Z,14.43
2023-02-09T18:24:44.102Z,14.10
2023-02-09T18:27:17.232Z,13.63
2023-02-09T18:29:43.962Z,15.70
2023-02-09T18:32:14.368Z,14.67
2023-02-09T18:34:41.290Z,16.10
2023-02-09T18:37:07.946Z,14.80
2023-02-09T18:39:36.670Z,14.97
2023-02-09T18:42:03.409Z,15.10
2023-02-09T18:44:32.242Z,15.50
2023-02-09T18:47:02.412Z,14.83
2023-02-09T18:49:29.825Z,14.77
2023-02-09T18:51:58.846Z,15.40
2023-02-09T18:54:27.698Z,14.60
2023-02-09T18:56:55.375Z,13.87
2023-02-09T18:59:22.010Z,14.17
2023-02-09T19:01:49.843Z,15.30
2023-02-09T19:04:16.507Z,14.57
2023-02-09T19:06:43.108Z,15.03
2023-02-09T19:09:09.723Z,15.87
2023-02-09T19:11:36.365Z,15.60
2023-02-09T19:14:21.610Z,15.73
2023-02-09T19:16:48.334Z,15.70
2023-02-09T19:19:16.051Z,16.20
2023-02-09T19:21:42.761Z,16.73
2023-02-09T19:24:09.395Z,17.03
2023-02-09T19:26:36.433Z,8.40
2023-02-09T19:29:03.060Z,17.30
2023-02-09T19:31:29.795Z,16.67
2023-02-09T19:33:57.588Z,16.17
2023-02-09T19:36:27.524Z,15.73
2023-02-09T19:38:54.966Z,15.63
2023-02-09T19:41:23.355Z,16.27
2023-02-09T19:43:54.725Z,15.50
2023-02-09T19:46:21.498Z,15.73
2023-02-09T19:48:48.578Z,14.70
2023-02-09T19:51:15.438Z,15.13
2023-02-09T19:53:42.342Z,16.10
2023-02-09T19:56:16.731Z,16.37
2023-02-09T19:58:44.323Z,13.73
2023-02-09T20:01:11.432Z,16.03
2023-02-09T20:03:38.870Z,17.47
2023-02-09T20:06:11.398Z,17.37
2023-02-09T20:08:39.310Z,15.33
2023-02-09T20:11:07.675Z,17.43
2023-02-09T20:13:35.084Z,18.80
2023-02-09T20:16:06.494Z,17.50
2023-02-09T20:18:33.118Z,17.67
2023-02-09T20:20:59.738Z,17.90
2023-02-09T20:23:26.340Z,17.53
2023-02-09T20:25:53.248Z,12.57
2023-02-09T20:28:21.208Z,17.63
2023-02-09T20:30:48.329Z,18.40
2023-02-09T20:33:15.318Z,17.73
2023-02-09T20:35:46.061Z,16.83
2023-02-09T20:38:15.779Z,19.27
2023-02-09T20:40:42.805Z,18.40
2023-02-09T20:43:30.054Z,17.70
2023-02-09T20:46:15.696Z,18.67
2023-02-09T20:48:42.355Z,18.50
2023-02-09T20:51:08.979Z,18.03
2023-02-09T20:53:35.586Z,17.73
2023-02-09T20:56:02.185Z,18.33
2023-02-09T20:58:28.797Z,10.07
2023-02-09T21:00:55.500Z,18.30
2023-02-09T21:03:22.138Z,18.33
2023-02-09T21:05:48.785Z,18.77
2023-02-09T21:08:15.450Z,13.00
2023-02-09T21:10:42.181Z,18.50
2023-02-09T21:13:09.707Z,17.73
2023-02-09T21:15:40.578Z,20.00
2023-02-09T21:18:07.549Z,19.00
2023-02-09T21:20:35.099Z,19.53
2023-02-09T21:23:03.251Z,19.27
2023-02-09T21:25:30.302Z,18.40
2023-02-09T21:27:59.535Z,19.73
2023-02-09T21:30:27.396Z,19.33
2023-02-09T21:32:55.261Z,20.43
2023-02-09T21:35:22.704Z,19.53
2023-02-09T21:37:49.387Z,19.43
2023-02-09T21:40:16.249Z,18.83
2023-02-09T21:42:43.361Z,19.13
2023-02-09T21:45:10.004Z,18.30
2023-02-09T21:47:38.795Z,19.77
2023-02-09T21:50:08.285Z,19.87
2023-02-09T21:52:35.716Z,20.17
2023-02-09T21:55:02.919Z,18.70
2023-02-09T21:57:29.647Z,19.47
2023-02-09T21:59:56.643Z,18.50
2023-02-09T22:02:23.281Z,20.27
2023-02-09T22:04:50.268Z,19.40
2023-02-09T22:07:16.924Z,20.00
2023-02-09T22:09:43.534Z,19.67
2023-02-09T22:12:10.149Z,19.80
2023-02-09T22:14:37.098Z,19.33
2023-02-09T22:17:03.765Z,19.07
2023-02-09T22:19:30.414Z,20.43
2023-02-09T22:21:57.958Z,20.23
2023-02-09T22:24:25.223Z,20.67
2023-02-09T22:26:51.960Z,19.10
2023-02-09T22:29:18.957Z,19.43
2023-02-09T22:31:46.224Z,19.70
2023-02-09T22:34:13.179Z,20.83
2023-02-09T22:36:40.085Z,21.30
2023-02-09T22:39:07.458Z,21.07
2023-02-09T22:41:34.499Z,20.93
2023-02-09T22:44:03.612Z,19.93
2023-02-09T22:46:33.024Z,21.30
2023-02-09T22:49:02.551Z,20.10
2023-02-09T22:51:30.574Z,19.87
2023-02-09T22:53:58.593Z,21.00
2023-02-09T22:56:26.772Z,20.60
2023-02-09T22:58:54.275Z,19.97
2023-02-09T23:01:21.517Z,16.83
2023-02-09T23:03:48.595Z,21.93
2023-02-09T23:06:18.718Z,20.33
2023-02-09T23:08:45.398Z,18.07
2023-02-09T23:11:14.934Z,20.60
2023-02-09T23:13:42.321Z,20.50
2023-02-09T23:16:14.841Z,20.47
2023-02-09T23:18:47.141Z,20.30
2023-02-09T23:21:14.373Z,20.33
2023-02-09T23:23:41.105Z,19.60
2023-02-09T23:26:07.760Z,21.97
2023-02-09T23:28:34.747Z,21.70
2023-02-09T23:31:07.731Z,22.00
2023-02-09T23:33:36.097Z,20.20
2023-02-09T23:36:07.423Z,20.03
2023-02-09T23:38:34.554Z,21.27
2023-02-09T23:41:06.812Z,21.13
2023-02-09T23:43:34.424Z,20.40
2023-02-09T23:46:06.001Z,21.17
2023-02-09T23:48:33.254Z,15.93
2023-02-09T23:51:05.094Z,7.20
2023-02-09T23:53:32.184Z,20.10
2023-02-09T23:56:03.451Z,20.00
2023-02-09T23:58:31.782Z,20.50
